sensor_id;sensor_type;location;lat;lon;timestamp;P1;durP1;ratioP1;P2;durP2;ratioP2
72235;SDS011;60146;52.498;13.462;2023-11-21T00:00:24;9.47;;;3.97;;
72235;SDS011;60146;52.498;13.462;2023-11-21T00:02:49;8.37;;;3.90;;
72235;SDS011;60146;52.498;13.462;2023-11-21T00:05:15;9.03;;;4.13;;
72235;SDS011;60146;52.498;13.462;2023-11-21T00:07:41;10.30;;;4.70;;
72235;SDS011;60146;52.498;13.462;2023-11-21T00:10:07;10.17;;;4.60;;
72235;SDS011;60146;52.498;13.462;2023-11-21T00:12:33;11.63;;;4.90;;
72235;SDS011;60146;52.498;13.462;2023-11-21T00:15:02;10.87;;;4.60;;
72235;SDS011;60146;52.498;13.462;2023-11-21T00:17:30;14.37;;;5.57;;
72235;SDS011;60146;52.498;13.462;2023-11-21T00:19:55;15.03;;;5.30;;
72235;SDS011;60146;52.498;13.462;2023-11-21T00:22:21;12.83;;;5.40;;
72235;SDS011;60146;52.498;13.462;2023-11-21T00:24:46;13.77;;;5.47;;
72235;SDS011;60146;52.498;13.462;2023-11-21T00:27:13;13.87;;;5.70;;
72235;SDS011;60146;52.498;13.462;2023-11-21T00:29:39;14.80;;;5.90;;
72235;SDS011;60146;52.498;13.462;2023-11-21T00:32:05;16.80;;;6.07;;
72235;SDS011;60146;52.498;13.462;2023-11-21T00:34:31;15.40;;;5.90;;
72235;SDS011;60146;52.498;13.462;2023-11-21T00:36:56;15.37;;;6.00;;
72235;SDS011;60146;52.498;13.462;2023-11-21T00:39:22;18.90;;;6.43;;
72235;SDS011;60146;52.498;13.462;2023-11-21T00:41:47;17.60;;;7.13;;
72235;SDS011;60146;52.498;13.462;2023-11-21T00:44:13;18.93;;;6.90;;
72235;SDS011;60146;52.498;13.462;2023-11-21T00:46:38;18.73;;;7.57;;
72235;SDS011;60146;52.498;13.462;2023-11-21T00:49:04;18.93;;;6.97;;
72235;SDS011;60146;52.498;13.462;2023-11-21T00:51:30;20.43;;;7.80;;
72235;SDS011;60146;52.498;13.462;2023-11-21T00:53:55;23.23;;;8.57;;
72235;SDS011;60146;52.498;13.462;2023-11-21T00:56:21;24.50;;;8.23;;
72235;SDS011;60146;52.498;13.462;2023-11-21T00:58:46;24.07;;;8.93;;
72235;SDS011;60146;52.498;13.462;2023-11-21T01:01:14;27.67;;;8.77;;
72235;SDS011;60146;52.498;13.462;2023-11-21T01:03:40;23.50;;;8.70;;
72235;SDS011;60146;52.498;13.462;2023-11-21T01:06:06;25.70;;;8.30;;
72235;SDS011;60146;52.498;13.462;2023-11-21T01:08:32;27.80;;;9.13;;
72235;SDS011;60146;52.498;13.462;2023-11-21T01:10:57;27.90;;;8.73;;
72235;SDS011;60146;52.498;13.462;2023-11-21T01:13:22;25.47;;;9.03;;
72235;SDS011;60146;52.498;13.462;2023-11-21T01:15:48;24.40;;;8.60;;
72235;SDS011;60146;52.498;13.462;2023-11-21T01:18:13;24.47;;;8.63;;
72235;SDS011;60146;52.498;13.462;2023-11-21T01:20:38;29.30;;;8.60;;
72235;SDS011;60146;52.498;13.462;2023-11-21T01:23:05;31.23;;;9.47;;
72235;SDS011;60146;52.498;13.462;2023-11-21T01:25:30;29.03;;;9.67;;
72235;SDS011;60146;52.498;13.462;2023-11-21T01:27:55;32.93;;;9.27;;
72235;SDS011;60146;52.498;13.462;2023-11-21T01:30:21;34.70;;;10.67;;
72235;SDS011;60146;52.498;13.462;2023-11-21T01:32:46;30.03;;;10.10;;
72235;SDS011;60146;52.498;13.462;2023-11-21T01:35:12;38.77;;;11.03;;
72235;SDS011;60146;52.498;13.462;2023-11-21T01:37:38;31.63;;;10.50;;
72235;SDS011;60146;52.498;13.462;2023-11-21T01:40:03;37.37;;;10.50;;
72235;SDS011;60146;52.498;13.462;2023-11-21T01:42:34;43.83;;;12.02;;
72235;SDS011;60146;52.498;13.462;2023-11-21T01:44:59;47.13;;;12.97;;
72235;SDS011;60146;52.498;13.462;2023-11-21T01:47:27;46.33;;;13.47;;
72235;SDS011;60146;52.498;13.462;2023-11-21T01:49:52;47.73;;;12.93;;
72235;SDS011;60146;52.498;13.462;2023-11-21T01:52:18;50.07;;;12.47;;
72235;SDS011;60146;52.498;13.462;2023-11-21T01:54:44;50.87;;;12.97;;
72235;SDS011;60146;52.498;13.462;2023-11-21T01:57:10;49.03;;;12.57;;
72235;SDS011;60146;52.498;13.462;2023-11-21T01:59:36;40.40;;;11.73;;
72235;SDS011;60146;52.498;13.462;2023-11-21T02:02:02;44.50;;;11.77;;
72235;SDS011;60146;52.498;13.462;2023-11-21T02:04:30;40.47;;;11.00;;
72235;SDS011;60146;52.498;13.462;2023-11-21T02:06:57;46.43;;;11.77;;
72235;SDS011;60146;52.498;13.462;2023-11-21T02:09:26;41.03;;;10.87;;
72235;SDS011;60146;52.498;13.462;2023-11-21T02:11:53;36.85;;;10.38;;
72235;SDS011;60146;52.498;13.462;2023-11-21T02:14:19;42.37;;;10.40;;
72235;SDS011;60146;52.498;13.462;2023-11-21T02:16:47;37.77;;;10.57;;
72235;SDS011;60146;52.498;13.462;2023-11-21T02:19:14;34.20;;;9.53;;
72235;SDS011;60146;52.498;13.462;2023-11-21T02:21:44;29.00;;;8.13;;
72235;SDS011;60146;52.498;13.462;2023-11-21T02:24:10;30.57;;;7.90;;
72235;SDS011;60146;52.498;13.462;2023-11-21T02:26:36;28.53;;;7.53;;
72235;SDS011;60146;52.498;13.462;2023-11-21T02:29:01;25.50;;;6.87;;
72235;SDS011;60146;52.498;13.462;2023-11-21T02:31:29;25.60;;;8.33;;
72235;SDS011;60146;52.498;13.462;2023-11-21T02:33:55;26.50;;;7.27;;
72235;SDS011;60146;52.498;13.462;2023-11-21T02:36:20;23.20;;;6.83;;
72235;SDS011;60146;52.498;13.462;2023-11-21T02:38:46;30.53;;;8.07;;
72235;SDS011;60146;52.498;13.462;2023-11-21T02:41:12;25.57;;;7.27;;
72235;SDS011;60146;52.498;13.462;2023-11-21T02:43:38;24.40;;;7.20;;
72235;SDS011;60146;52.498;13.462;2023-11-21T02:46:03;24.00;;;7.37;;
72235;SDS011;60146;52.498;13.462;2023-11-21T02:48:29;19.63;;;6.00;;
72235;SDS011;60146;52.498;13.462;2023-11-21T02:50:55;19.60;;;5.97;;
72235;SDS011;60146;52.498;13.462;2023-11-21T02:53:21;23.70;;;6.67;;
72235;SDS011;60146;52.498;13.462;2023-11-21T02:55:46;20.50;;;6.13;;
72235;SDS011;60146;52.498;13.462;2023-11-21T02:58:11;17.07;;;6.17;;
72235;SDS011;60146;52.498;13.462;2023-11-21T03:00:37;17.03;;;5.97;;
72235;SDS011;60146;52.498;13.462;2023-11-21T03:03:02;21.43;;;6.40;;
72235;SDS011;60146;52.498;13.462;2023-11-21T03:05:28;17.90;;;6.17;;
72235;SDS011;60146;52.498;13.462;2023-11-21T03:07:53;13.57;;;5.27;;
72235;SDS011;60146;52.498;13.462;2023-11-21T03:10:19;14.73;;;5.93;;
72235;SDS011;60146;52.498;13.462;2023-11-21T03:12:44;15.50;;;5.83;;
72235;SDS011;60146;52.498;13.462;2023-11-21T03:15:10;13.87;;;5.30;;
72235;SDS011;60146;52.498;13.462;2023-11-21T03:17:35;14.27;;;5.57;;
72235;SDS011;60146;52.498;13.462;2023-11-21T03:20:01;14.27;;;5.63;;
72235;SDS011;60146;52.498;13.462;2023-11-21T03:22:28;12.87;;;5.53;;
72235;SDS011;60146;52.498;13.462;2023-11-21T03:24:53;14.33;;;5.83;;
72235;SDS011;60146;52.498;13.462;2023-11-21T03:27:18;13.80;;;5.80;;
72235;SDS011;60146;52.498;13.462;2023-11-21T03:29:44;12.17;;;4.97;;
72235;SDS011;60146;52.498;13.462;2023-11-21T03:32:10;16.27;;;5.67;;
72235;SDS011;60146;52.498;13.462;2023-11-21T03:34:35;15.80;;;5.57;;
72235;SDS011;60146;52.498;13.462;2023-11-21T03:37:01;12.03;;;5.70;;
72235;SDS011;60146;52.498;13.462;2023-11-21T03:39:26;13.47;;;5.17;;
72235;SDS011;60146;52.498;13.462;2023-11-21T03:41:51;11.57;;;4.90;;
72235;SDS011;60146;52.498;13.462;2023-11-21T03:44:17;12.27;;;4.90;;
72235;SDS011;60146;52.498;13.462;2023-11-21T03:46:43;10.27;;;4.50;;
72235;SDS011;60146;52.498;13.462;2023-11-21T03:49:08;11.03;;;4.97;;
72235;SDS011;60146;52.498;13.462;2023-11-21T03:51:33;11.10;;;5.07;;
72235;SDS011;60146;52.498;13.462;2023-11-21T03:53:59;12.13;;;5.20;;
72235;SDS011;60146;52.498;13.462;2023-11-21T03:56:24;10.40;;;5.10;;
72235;SDS011;60146;52.498;13.462;2023-11-21T03:58:49;11.63;;;4.73;;
72235;SDS011;60146;52.498;13.462;2023-11-21T04:01:21;13.47;;;5.23;;
72235;SDS011;60146;52.498;13.462;2023-11-21T04:03:48;13.30;;;4.97;;
72235;SDS011;60146;52.498;13.462;2023-11-21T04:06:14;9.53;;;4.67;;
72235;SDS011;60146;52.498;13.462;2023-11-21T04:08:39;9.77;;;4.43;;
72235;SDS011;60146;52.498;13.462;2023-11-21T04:11:04;11.60;;;4.90;;
72235;SDS011;60146;52.498;13.462;2023-11-21T04:13:30;11.17;;;4.50;;
72235;SDS011;60146;52.498;13.462;2023-11-21T04:15:55;11.50;;;4.50;;
72235;SDS011;60146;52.498;13.462;2023-11-21T04:18:21;10.60;;;4.33;;
72235;SDS011;60146;52.498;13.462;2023-11-21T04:20:48;11.47;;;4.67;;
72235;SDS011;60146;52.498;13.462;2023-11-21T04:23:13;11.13;;;4.70;;
72235;SDS011;60146;52.498;13.462;2023-11-21T04:25:40;10.10;;;4.63;;
72235;SDS011;60146;52.498;13.462;2023-11-21T04:28:05;9.23;;;4.40;;
72235;SDS011;60146;52.498;13.462;2023-11-21T04:30:30;9.70;;;4.03;;
72235;SDS011;60146;52.498;13.462;2023-11-21T04:32:55;9.30;;;4.27;;
72235;SDS011;60146;52.498;13.462;2023-11-21T04:35:21;9.53;;;4.33;;
72235;SDS011;60146;52.498;13.462;2023-11-21T04:37:47;8.70;;;3.90;;
72235;SDS011;60146;52.498;13.462;2023-11-21T04:40:12;10.10;;;4.30;;
72235;SDS011;60146;52.498;13.462;2023-11-21T04:42:38;8.20;;;3.83;;
72235;SDS011;60146;52.498;13.462;2023-11-21T04:45:04;9.10;;;4.03;;
72235;SDS011;60146;52.498;13.462;2023-11-21T04:47:33;7.15;;;3.05;;
72235;SDS011;60146;52.498;13.462;2023-11-21T04:49:59;8.87;;;3.63;;
72235;SDS011;60146;52.498;13.462;2023-11-21T04:52:24;10.10;;;3.50;;
72235;SDS011;60146;52.498;13.462;2023-11-21T04:54:49;7.13;;;3.60;;
72235;SDS011;60146;52.498;13.462;2023-11-21T04:57:15;8.87;;;3.87;;
72235;SDS011;60146;52.498;13.462;2023-11-21T04:59:43;8.30;;;3.60;;
72235;SDS011;60146;52.498;13.462;2023-11-21T05:02:08;8.57;;;3.60;;
72235;SDS011;60146;52.498;13.462;2023-11-21T05:04:33;8.30;;;3.47;;
72235;SDS011;60146;52.498;13.462;2023-11-21T05:06:59;8.27;;;3.40;;
72235;SDS011;60146;52.498;13.462;2023-11-21T05:09:25;6.97;;;3.00;;
72235;SDS011;60146;52.498;13.462;2023-11-21T05:11:51;6.63;;;3.10;;
72235;SDS011;60146;52.498;13.462;2023-11-21T05:14:18;8.30;;;3.30;;
72235;SDS011;60146;52.498;13.462;2023-11-21T05:16:43;7.43;;;3.33;;
72235;SDS011;60146;52.498;13.462;2023-11-21T05:19:09;7.00;;;2.87;;
72235;SDS011;60146;52.498;13.462;2023-11-21T05:21:34;8.37;;;3.33;;
72235;SDS011;60146;52.498;13.462;2023-11-21T05:24:01;9.87;;;3.60;;
72235;SDS011;60146;52.498;13.462;2023-11-21T05:26:26;6.37;;;2.90;;
72235;SDS011;60146;52.498;13.462;2023-11-21T05:28:52;8.43;;;3.40;;
72235;SDS011;60146;52.498;13.462;2023-11-21T05:31:18;7.67;;;3.57;;
72235;SDS011;60146;52.498;13.462;2023-11-21T05:33:43;10.37;;;3.60;;
72235;SDS011;60146;52.498;13.462;2023-11-21T05:36:08;7.83;;;3.63;;
72235;SDS011;60146;52.498;13.462;2023-11-21T05:38:35;9.03;;;3.77;;
72235;SDS011;60146;52.498;13.462;2023-11-21T05:41:02;8.23;;;3.33;;
72235;SDS011;60146;52.498;13.462;2023-11-21T05:43:28;7.63;;;2.97;;
72235;SDS011;60146;52.498;13.462;2023-11-21T05:45:55;6.57;;;3.03;;
72235;SDS011;60146;52.498;13.462;2023-11-21T05:48:21;8.93;;;3.53;;
72235;SDS011;60146;52.498;13.462;2023-11-21T05:50:46;8.30;;;3.10;;
72235;SDS011;60146;52.498;13.462;2023-11-21T05:53:13;6.33;;;3.20;;
72235;SDS011;60146;52.498;13.462;2023-11-21T05:55:40;7.73;;;2.90;;
72235;SDS011;60146;52.498;13.462;2023-11-21T05:58:06;7.93;;;3.60;;
72235;SDS011;60146;52.498;13.462;2023-11-21T06:00:32;8.77;;;3.10;;
72235;SDS011;60146;52.498;13.462;2023-11-21T06:02:58;7.17;;;3.40;;
72235;SDS011;60146;52.498;13.462;2023-11-21T06:05:24;7.67;;;3.00;;
72235;SDS011;60146;52.498;13.462;2023-11-21T06:07:51;7.43;;;3.03;;
72235;SDS011;60146;52.498;13.462;2023-11-21T06:10:19;9.80;;;3.33;;
72235;SDS011;60146;52.498;13.462;2023-11-21T06:12:45;8.80;;;3.47;;
72235;SDS011;60146;52.498;13.462;2023-11-21T06:15:11;7.27;;;3.30;;
72235;SDS011;60146;52.498;13.462;2023-11-21T06:17:38;8.43;;;3.77;;
72235;SDS011;60146;52.498;13.462;2023-11-21T06:20:05;10.17;;;4.00;;
72235;SDS011;60146;52.498;13.462;2023-11-21T06:22:36;12.40;;;4.17;;
72235;SDS011;60146;52.498;13.462;2023-11-21T06:25:02;10.00;;;3.60;;
72235;SDS011;60146;52.498;13.462;2023-11-21T06:27:29;8.53;;;3.70;;
72235;SDS011;60146;52.498;13.462;2023-11-21T06:29:56;7.77;;;3.53;;
72235;SDS011;60146;52.498;13.462;2023-11-21T06:32:21;8.13;;;3.57;;
72235;SDS011;60146;52.498;13.462;2023-11-21T06:34:47;9.37;;;3.77;;
72235;SDS011;60146;52.498;13.462;2023-11-21T06:37:14;7.57;;;3.43;;
72235;SDS011;60146;52.498;13.462;2023-11-21T06:39:40;7.33;;;3.17;;
72235;SDS011;60146;52.498;13.462;2023-11-21T06:42:05;7.70;;;3.40;;
72235;SDS011;60146;52.498;13.462;2023-11-21T06:44:30;6.07;;;2.93;;
72235;SDS011;60146;52.498;13.462;2023-11-21T06:46:56;5.67;;;2.80;;
72235;SDS011;60146;52.498;13.462;2023-11-21T06:49:21;6.83;;;3.10;;
72235;SDS011;60146;52.498;13.462;2023-11-21T06:51:48;6.00;;;3.30;;
72235;SDS011;60146;52.498;13.462;2023-11-21T06:54:13;6.33;;;2.63;;
72235;SDS011;60146;52.498;13.462;2023-11-21T06:56:39;7.77;;;3.13;;
72235;SDS011;60146;52.498;13.462;2023-11-21T06:59:05;7.70;;;3.17;;
72235;SDS011;60146;52.498;13.462;2023-11-21T07:01:30;7.50;;;3.10;;
72235;SDS011;60146;52.498;13.462;2023-11-21T07:03:59;7.30;;;3.10;;
72235;SDS011;60146;52.498;13.462;2023-11-21T07:06:24;7.50;;;3.60;;
72235;SDS011;60146;52.498;13.462;2023-11-21T07:08:49;8.80;;;3.43;;
72235;SDS011;60146;52.498;13.462;2023-11-21T07:11:15;7.13;;;3.70;;
72235;SDS011;60146;52.498;13.462;2023-11-21T07:13:40;7.90;;;3.60;;
72235;SDS011;60146;52.498;13.462;2023-11-21T07:16:05;8.80;;;3.47;;
72235;SDS011;60146;52.498;13.462;2023-11-21T07:18:31;7.27;;;3.27;;
72235;SDS011;60146;52.498;13.462;2023-11-21T07:20:56;6.73;;;3.10;;
72235;SDS011;60146;52.498;13.462;2023-11-21T07:23:23;7.03;;;3.23;;
72235;SDS011;60146;52.498;13.462;2023-11-21T07:25:49;5.63;;;2.80;;
72235;SDS011;60146;52.498;13.462;2023-11-21T07:28:14;8.10;;;3.30;;
72235;SDS011;60146;52.498;13.462;2023-11-21T07:30:40;6.20;;;2.70;;
72235;SDS011;60146;52.498;13.462;2023-11-21T07:33:05;9.83;;;3.17;;
72235;SDS011;60146;52.498;13.462;2023-11-21T07:35:32;6.60;;;3.00;;
72235;SDS011;60146;52.498;13.462;2023-11-21T07:37:57;5.40;;;2.90;;
72235;SDS011;60146;52.498;13.462;2023-11-21T07:40:23;9.53;;;3.27;;
72235;SDS011;60146;52.498;13.462;2023-11-21T07:42:48;7.83;;;3.23;;
72235;SDS011;60146;52.498;13.462;2023-11-21T07:45:15;5.23;;;2.80;;
72235;SDS011;60146;52.498;13.462;2023-11-21T07:47:40;7.03;;;3.10;;
72235;SDS011;60146;52.498;13.462;2023-11-21T07:50:06;7.57;;;3.30;;
72235;SDS011;60146;52.498;13.462;2023-11-21T07:52:32;6.67;;;2.60;;
72235;SDS011;60146;52.498;13.462;2023-11-21T07:54:58;7.47;;;3.50;;
72235;SDS011;60146;52.498;13.462;2023-11-21T07:57:24;5.70;;;2.40;;
72235;SDS011;60146;52.498;13.462;2023-11-21T07:59:49;5.60;;;2.80;;
72235;SDS011;60146;52.498;13.462;2023-11-21T08:02:14;8.53;;;3.30;;
72235;SDS011;60146;52.498;13.462;2023-11-21T08:04:41;9.97;;;3.20;;
72235;SDS011;60146;52.498;13.462;2023-11-21T08:07:07;7.77;;;3.40;;
72235;SDS011;60146;52.498;13.462;2023-11-21T08:09:32;7.40;;;2.90;;
72235;SDS011;60146;52.498;13.462;2023-11-21T08:11:59;7.27;;;2.83;;
72235;SDS011;60146;52.498;13.462;2023-11-21T08:14:25;9.07;;;3.17;;
72235;SDS011;60146;52.498;13.462;2023-11-21T08:16:51;11.00;;;3.77;;
72235;SDS011;60146;52.498;13.462;2023-11-21T08:19:17;14.73;;;3.73;;
72235;SDS011;60146;52.498;13.462;2023-11-21T08:21:43;10.20;;;3.60;;
72235;SDS011;60146;52.498;13.462;2023-11-21T08:24:08;9.10;;;3.30;;
72235;SDS011;60146;52.498;13.462;2023-11-21T08:26:36;9.37;;;2.80;;
72235;SDS011;60146;52.498;13.462;2023-11-21T08:29:01;14.73;;;3.60;;
72235;SDS011;60146;52.498;13.462;2023-11-21T08:31:27;11.63;;;3.83;;
72235;SDS011;60146;52.498;13.462;2023-11-21T08:33:52;15.10;;;4.87;;
72235;SDS011;60146;52.498;13.462;2023-11-21T08:36:23;15.23;;;4.03;;
72235;SDS011;60146;52.498;13.462;2023-11-21T08:38:49;11.77;;;3.70;;
72235;SDS011;60146;52.498;13.462;2023-11-21T08:41:20;12.20;;;4.23;;
72235;SDS011;60146;52.498;13.462;2023-11-21T08:43:47;13.13;;;3.60;;
72235;SDS011;60146;52.498;13.462;2023-11-21T08:46:13;13.30;;;3.80;;
72235;SDS011;60146;52.498;13.462;2023-11-21T08:48:38;15.83;;;4.30;;
72235;SDS011;60146;52.498;13.462;2023-11-21T08:51:06;13.87;;;4.20;;
72235;SDS011;60146;52.498;13.462;2023-11-21T08:53:31;12.37;;;4.00;;
72235;SDS011;60146;52.498;13.462;2023-11-21T08:55:57;14.93;;;3.90;;
72235;SDS011;60146;52.498;13.462;2023-11-21T08:58:23;12.00;;;4.00;;
72235;SDS011;60146;52.498;13.462;2023-11-21T09:00:48;15.47;;;4.27;;
72235;SDS011;60146;52.498;13.462;2023-11-21T09:03:14;17.23;;;3.40;;
72235;SDS011;60146;52.498;13.462;2023-11-21T09:05:39;12.27;;;3.97;;
72235;SDS011;60146;52.498;13.462;2023-11-21T09:08:05;14.17;;;4.30;;
72235;SDS011;60146;52.498;13.462;2023-11-21T09:10:31;14.97;;;3.67;;
72235;SDS011;60146;52.498;13.462;2023-11-21T09:13:00;17.53;;;4.33;;
72235;SDS011;60146;52.498;13.462;2023-11-21T09:15:26;10.43;;;3.33;;
72235;SDS011;60146;52.498;13.462;2023-11-21T09:17:52;9.03;;;3.37;;
72235;SDS011;60146;52.498;13.462;2023-11-21T09:20:18;11.47;;;3.93;;
72235;SDS011;60146;52.498;13.462;2023-11-21T09:22:47;11.93;;;3.73;;
72235;SDS011;60146;52.498;13.462;2023-11-21T09:25:13;10.80;;;3.47;;
72235;SDS011;60146;52.498;13.462;2023-11-21T09:27:39;11.80;;;3.43;;
72235;SDS011;60146;52.498;13.462;2023-11-21T09:30:04;11.40;;;3.47;;
72235;SDS011;60146;52.498;13.462;2023-11-21T09:32:33;10.03;;;3.17;;
72235;SDS011;60146;52.498;13.462;2023-11-21T09:35:00;7.90;;;2.83;;
72235;SDS011;60146;52.498;13.462;2023-11-21T09:37:27;7.90;;;2.53;;
72235;SDS011;60146;52.498;13.462;2023-11-21T09:39:52;6.17;;;2.40;;
72235;SDS011;60146;52.498;13.462;2023-11-21T09:42:25;6.70;;;2.00;;
72235;SDS011;60146;52.498;13.462;2023-11-21T09:47:48;6.30;;;2.00;;
72235;SDS011;60146;52.498;13.462;2023-11-21T09:50:16;7.07;;;2.10;;
72235;SDS011;60146;52.498;13.462;2023-11-21T09:55:35;6.93;;;2.30;;
72235;SDS011;60146;52.498;13.462;2023-11-21T09:58:03;5.40;;;1.93;;
72235;SDS011;60146;52.498;13.462;2023-11-21T10:00:32;3.83;;;1.70;;
72235;SDS011;60146;52.498;13.462;2023-11-21T10:02:58;5.47;;;2.00;;
72235;SDS011;60146;52.498;13.462;2023-11-21T10:05:24;2.97;;;1.60;;
72235;SDS011;60146;52.498;13.462;2023-11-21T10:07:50;2.73;;;1.30;;
72235;SDS011;60146;52.498;13.462;2023-11-21T10:10:17;2.13;;;1.33;;
72235;SDS011;60146;52.498;13.462;2023-11-21T10:12:45;2.03;;;1.30;;
72235;SDS011;60146;52.498;13.462;2023-11-21T10:15:14;2.65;;;1.30;;
72235;SDS011;60146;52.498;13.462;2023-11-21T10:17:41;3.90;;;1.40;;
72235;SDS011;60146;52.498;13.462;2023-11-21T10:20:13;3.03;;;1.50;;
72235;SDS011;60146;52.498;13.462;2023-11-21T10:22:39;3.27;;;1.50;;
72235;SDS011;60146;52.498;13.462;2023-11-21T10:25:06;4.97;;;1.50;;
72235;SDS011;60146;52.498;13.462;2023-11-21T10:27:33;4.23;;;1.80;;
72235;SDS011;60146;52.498;13.462;2023-11-21T10:30:02;4.50;;;1.60;;
72235;SDS011;60146;52.498;13.462;2023-11-21T10:32:32;2.93;;;1.50;;
72235;SDS011;60146;52.498;13.462;2023-11-21T10:35:00;4.30;;;1.87;;
72235;SDS011;60146;52.498;13.462;2023-11-21T10:37:35;4.07;;;1.80;;
72235;SDS011;60146;52.498;13.462;2023-11-21T10:40:11;2.97;;;1.87;;
72235;SDS011;60146;52.498;13.462;2023-11-21T10:42:40;5.57;;;1.80;;
72235;SDS011;60146;52.498;13.462;2023-11-21T10:45:06;3.80;;;1.60;;
72235;SDS011;60146;52.498;13.462;2023-11-21T10:47:38;2.97;;;1.70;;
72235;SDS011;60146;52.498;13.462;2023-11-21T10:50:05;6.97;;;2.00;;
72235;SDS011;60146;52.498;13.462;2023-11-21T10:52:30;4.40;;;1.57;;
72235;SDS011;60146;52.498;13.462;2023-11-21T10:54:56;4.10;;;1.40;;
72235;SDS011;60146;52.498;13.462;2023-11-21T10:57:24;3.27;;;1.43;;
72235;SDS011;60146;52.498;13.462;2023-11-21T10:59:50;3.20;;;1.70;;
72235;SDS011;60146;52.498;13.462;2023-11-21T11:02:25;3.67;;;1.60;;
72235;SDS011;60146;52.498;13.462;2023-11-21T11:04:53;3.37;;;1.80;;
72235;SDS011;60146;52.498;13.462;2023-11-21T11:07:20;4.70;;;2.00;;
72235;SDS011;60146;52.498;13.462;2023-11-21T11:09:49;4.17;;;2.10;;
72235;SDS011;60146;52.498;13.462;2023-11-21T11:12:15;4.50;;;1.90;;
72235;SDS011;60146;52.498;13.462;2023-11-21T11:14:42;4.23;;;2.60;;
72235;SDS011;60146;52.498;13.462;2023-11-21T11:17:09;4.20;;;2.20;;
72235;SDS011;60146;52.498;13.462;2023-11-21T11:19:35;5.97;;;2.30;;
72235;SDS011;60146;52.498;13.462;2023-11-21T11:24:50;3.93;;;2.40;;
72235;SDS011;60146;52.498;13.462;2023-11-21T11:28:00;4.67;;;2.40;;
72235;SDS011;60146;52.498;13.462;2023-11-21T11:36:43;4.00;;;2.50;;
72235;SDS011;60146;52.498;13.462;2023-11-21T11:42:01;6.77;;;2.27;;
72235;SDS011;60146;52.498;13.462;2023-11-21T11:47:16;4.77;;;2.43;;
72235;SDS011;60146;52.498;13.462;2023-11-21T11:50:04;5.30;;;2.50;;
72235;SDS011;60146;52.498;13.462;2023-11-21T11:52:40;8.77;;;3.50;;
72235;SDS011;60146;52.498;13.462;2023-11-21T11:55:08;4.40;;;2.40;;
72235;SDS011;60146;52.498;13.462;2023-11-21T11:57:38;4.87;;;2.40;;
72235;SDS011;60146;52.498;13.462;2023-11-21T12:00:09;7.43;;;2.60;;
72235;SDS011;60146;52.498;13.462;2023-11-21T12:02:45;4.73;;;2.50;;
72235;SDS011;60146;52.498;13.462;2023-11-21T12:05:12;4.80;;;2.23;;
72235;SDS011;60146;52.498;13.462;2023-11-21T12:07:46;5.30;;;2.10;;
72235;SDS011;60146;52.498;13.462;2023-11-21T12:10:13;4.53;;;2.27;;
72235;SDS011;60146;52.498;13.462;2023-11-21T12:12:46;5.95;;;1.83;;
72235;SDS011;60146;52.498;13.462;2023-11-21T12:15:13;4.67;;;2.30;;
72235;SDS011;60146;52.498;13.462;2023-11-21T12:17:42;6.63;;;2.77;;
72235;SDS011;60146;52.498;13.462;2023-11-21T12:20:08;3.50;;;2.00;;
72235;SDS011;60146;52.498;13.462;2023-11-21T12:22:41;4.67;;;2.23;;
72235;SDS011;60146;52.498;13.462;2023-11-21T12:25:07;3.70;;;2.23;;
72235;SDS011;60146;52.498;13.462;2023-11-21T12:27:33;4.10;;;2.10;;
72235;SDS011;60146;52.498;13.462;2023-11-21T12:29:58;7.23;;;2.13;;
72235;SDS011;60146;52.498;13.462;2023-11-21T12:32:24;5.13;;;1.97;;
72235;SDS011;60146;52.498;13.462;2023-11-21T12:34:50;3.97;;;2.00;;
72235;SDS011;60146;52.498;13.462;2023-11-21T12:37:16;2.23;;;1.53;;
72235;SDS011;60146;52.498;13.462;2023-11-21T12:39:42;3.13;;;1.70;;
72235;SDS011;60146;52.498;13.462;2023-11-21T12:42:07;3.23;;;2.10;;
72235;SDS011;60146;52.498;13.462;2023-11-21T12:44:33;2.67;;;1.50;;
72235;SDS011;60146;52.498;13.462;2023-11-21T12:46:59;4.03;;;1.60;;
72235;SDS011;60146;52.498;13.462;2023-11-21T12:49:24;2.23;;;1.40;;
72235;SDS011;60146;52.498;13.462;2023-11-21T12:51:50;3.00;;;1.47;;
72235;SDS011;60146;52.498;13.462;2023-11-21T12:54:15;5.10;;;1.80;;
72235;SDS011;60146;52.498;13.462;2023-11-21T12:56:44;2.27;;;1.50;;
72235;SDS011;60146;52.498;13.462;2023-11-21T12:59:12;4.28;;;2.17;;
72235;SDS011;60146;52.498;13.462;2023-11-21T13:01:41;5.27;;;2.10;;
72235;SDS011;60146;52.498;13.462;2023-11-21T13:04:07;5.13;;;1.90;;
72235;SDS011;60146;52.498;13.462;2023-11-21T13:06:35;4.27;;;1.80;;
72235;SDS011;60146;52.498;13.462;2023-11-21T13:09:07;2.95;;;1.30;;
72235;SDS011;60146;52.498;13.462;2023-11-21T13:11:36;4.63;;;1.70;;
72235;SDS011;60146;52.498;13.462;2023-11-21T13:14:02;3.73;;;1.77;;
72235;SDS011;60146;52.498;13.462;2023-11-21T13:16:28;5.47;;;1.47;;
72235;SDS011;60146;52.498;13.462;2023-11-21T13:18:55;3.37;;;1.70;;
72235;SDS011;60146;52.498;13.462;2023-11-21T13:21:20;3.23;;;1.80;;
72235;SDS011;60146;52.498;13.462;2023-11-21T13:23:47;3.40;;;1.90;;
72235;SDS011;60146;52.498;13.462;2023-11-21T13:26:15;4.77;;;2.13;;
72235;SDS011;60146;52.498;13.462;2023-11-21T13:28:40;4.97;;;1.60;;
72235;SDS011;60146;52.498;13.462;2023-11-21T13:31:10;3.72;;;1.77;;
72235;SDS011;60146;52.498;13.462;2023-11-21T13:33:46;4.17;;;2.00;;
72235;SDS011;60146;52.498;13.462;2023-11-21T13:36:24;4.07;;;2.20;;
72235;SDS011;60146;52.498;13.462;2023-11-21T13:38:50;4.53;;;2.15;;
72235;SDS011;60146;52.498;13.462;2023-11-21T13:41:17;5.47;;;2.50;;
72235;SDS011;60146;52.498;13.462;2023-11-21T13:43:43;4.73;;;2.43;;
72235;SDS011;60146;52.498;13.462;2023-11-21T13:48:42;5.43;;;2.63;;
72235;SDS011;60146;52.498;13.462;2023-11-21T13:51:10;5.63;;;2.90;;
72235;SDS011;60146;52.498;13.462;2023-11-21T13:53:42;6.03;;;2.50;;
72235;SDS011;60146;52.498;13.462;2023-11-21T13:56:18;6.53;;;3.00;;
72235;SDS011;60146;52.498;13.462;2023-11-21T13:58:53;6.97;;;3.23;;
72235;SDS011;60146;52.498;13.462;2023-11-21T14:01:23;4.63;;;2.60;;
72235;SDS011;60146;52.498;13.462;2023-11-21T14:03:55;5.07;;;2.57;;
72235;SDS011;60146;52.498;13.462;2023-11-21T14:06:50;7.10;;;2.97;;
72235;SDS011;60146;52.498;13.462;2023-11-21T14:09:20;7.23;;;3.10;;
72235;SDS011;60146;52.498;13.462;2023-11-21T14:11:54;8.03;;;3.40;;
72235;SDS011;60146;52.498;13.462;2023-11-21T14:14:22;7.73;;;3.70;;
72235;SDS011;60146;52.498;13.462;2023-11-21T14:16:51;11.00;;;3.83;;
72235;SDS011;60146;52.498;13.462;2023-11-21T14:19:17;10.67;;;4.20;;
72235;SDS011;60146;52.498;13.462;2023-11-21T14:21:43;12.90;;;4.47;;
72235;SDS011;60146;52.498;13.462;2023-11-21T14:24:09;9.97;;;4.27;;
72235;SDS011;60146;52.498;13.462;2023-11-21T14:26:37;10.97;;;4.70;;
72235;SDS011;60146;52.498;13.462;2023-11-21T14:29:07;11.37;;;4.97;;
72235;SDS011;60146;52.498;13.462;2023-11-21T14:31:33;12.73;;;5.57;;
72235;SDS011;60146;52.498;13.462;2023-11-21T14:33:59;12.37;;;5.20;;
72235;SDS011;60146;52.498;13.462;2023-11-21T14:36:27;16.00;;;6.07;;
72235;SDS011;60146;52.498;13.462;2023-11-21T14:38:53;12.93;;;5.60;;
72235;SDS011;60146;52.498;13.462;2023-11-21T14:41:19;14.73;;;6.87;;
72235;SDS011;60146;52.498;13.462;2023-11-21T14:43:44;17.13;;;7.23;;
72235;SDS011;60146;52.498;13.462;2023-11-21T14:46:12;14.83;;;6.70;;
72235;SDS011;60146;52.498;13.462;2023-11-21T14:48:41;15.90;;;7.33;;